Time;durP1;ratioP1;P1;durP2;ratioP2;P2;SDS_P1;SDS_P2;PMS_P1;PMS_P2;Temp;Humidity;BMP_temperature;BMP_pressure;BME280_temperature;BME280_humidity;BME280_pressure;Samples;Min_cycle;Max_cycle;Signal;HPM_P1;HPM_P2
2023/05/18 00:01:26;;;;;;;31.33;7.30;;;5.30;99.90;;;;;;5038818;28;20450;-68
2023/05/18 00:03:53;;;;;;;7.63;5.40;;;5.30;99.90;;;;;;5038542;28;20205;-68
2023/05/18 00:06:21;;;;;;;7.70;6.13;;;5.30;99.90;;;;;;5034468;28;20185;-68
2023/05/18 00:08:46;;;;;;;10.87;6.27;;;5.40;99.90;;;;;;5048506;28;20474;-68
2023/05/18 00:11:12;;;;;;;9.50;5.90;;;5.40;99.90;;;;;;5050228;28;20508;-68
2023/05/18 00:13:40;;;;;;;9.40;5.73;;;5.50;99.90;;;;;;5041436;28;20187;-67
2023/05/18 00:16:06;;;;;;;10.10;6.17;;;5.50;99.90;;;;;;5034924;28;20232;-68
2023/05/18 00:18:32;;;;;;;7.90;5.13;;;5.50;99.90;;;;;;5043647;28;20955;-68
2023/05/18 00:20:58;;;;;;;7.60;5.30;;;5.50;99.90;;;;;;5045700;28;20232;-68
2023/05/18 00:23:31;;;;;;;11.73;5.03;;;5.50;99.90;;;;;;5054399;28;20463;-68
2023/05/18 00:26:01;;;;;;;6.77;5.30;;;5.50;99.90;;;;;;5045670;28;20266;-68
2023/05/18 00:28:27;;;;;;;9.20;5.70;;;5.40;99.90;;;;;;5045666;28;20840;-68
2023/05/18 00:30:54;;;;;;;7.93;6.40;;;5.50;99.90;;;;;;5034226;28;20450;-68
2023/05/18 00:33:20;;;;;;;8.17;6.37;;;5.50;99.90;;;;;;5048544;28;20431;-68
2023/05/18 00:35:46;;;;;;;10.80;6.53;;;5.50;99.90;;;;;;5052053;28;20422;-67
2023/05/18 00:38:14;;;;;;;10.27;5.27;;;5.60;99.90;;;;;;5038581;28;20436;-68
2023/05/18 00:40:43;;;;;;;9.30;4.63;;;5.60;99.90;;;;;;5052228;28;20177;-68
2023/05/18 00:43:09;;;;;;;10.73;6.10;;;5.50;99.90;;;;;;5053685;28;20438;-68
2023/05/18 00:45:35;;;;;;;5.90;5.30;;;5.50;99.90;;;;;;5053690;28;20421;-68
2023/05/18 00:48:00;;;;;;;7.37;5.10;;;5.50;99.90;;;;;;5045131;28;20787;-67
2023/05/18 00:50:26;;;;;;;9.20;4.87;;;5.60;99.90;;;;;;5046691;28;20724;-68
2023/05/18 00:52:52;;;;;;;11.43;5.33;;;5.60;99.90;;;;;;5049914;28;20744;-68
2023/05/18 00:55:17;;;;;;;11.20;5.57;;;5.60;99.90;;;;;;5041857;28;20179;-68
2023/05/18 00:57:44;;;;;;;6.47;5.57;;;5.60;99.90;;;;;;5034319;28;20211;-67
2023/05/18 02:30:49;;;;;;;11.50;6.17;;;4.20;99.90;;;;;;5932983;22;20497;-68
2023/05/18 02:33:16;;;;;;;7.00;5.67;;;4.20;99.90;;;;;;5000732;28;20432;-69
2023/05/18 02:35:42;;;;;;;11.87;6.20;;;4.20;99.90;;;;;;4993372;28;20183;-68
2023/05/18 02:38:07;;;;;;;12.00;6.10;;;4.20;99.90;;;;;;5000069;28;20541;-69
2023/05/18 02:40:33;;;;;;;9.90;6.23;;;4.10;99.90;;;;;;4974344;28;20181;-67
2023/05/18 02:43:01;;;;;;;9.73;6.23;;;4.10;99.90;;;;;;4991860;28;20194;-68
2023/05/18 02:45:26;;;;;;;6.43;5.73;;;4.10;99.90;;;;;;4998098;28;20308;-69
2023/05/18 02:47:52;;;;;;;9.40;6.70;;;4.10;99.90;;;;;;5009691;28;20436;-69
2023/05/18 02:50:21;;;;;;;8.93;6.80;;;4.00;99.90;;;;;;4999636;28;20273;-68
2023/05/18 02:52:48;;;;;;;13.47;6.87;;;4.00;99.90;;;;;;5000602;28;20207;-68
2023/05/18 02:55:14;;;;;;;13.33;7.00;;;4.00;99.90;;;;;;5007107;28;20557;-69
2023/05/18 02:57:45;;;;;;;8.90;6.00;;;4.00;99.90;;;;;;5000133;28;20507;-69
2023/05/18 03:00:14;;;;;;;14.53;7.73;;;3.90;99.90;;;;;;5000000;28;20609;-69
2023/05/18 03:02:43;;;;;;;14.67;6.87;;;3.90;99.90;;;;;;4991859;28;20464;-69
2023/05/18 03:05:40;;;;;;;10.67;7.37;;;3.90;99.90;;;;;;4990481;28;20460;-69
2023/05/18 03:08:05;;;;;;;10.50;6.70;;;3.80;99.90;;;;;;4994872;28;20439;-69
2023/05/18 03:10:31;;;;;;;8.60;6.50;;;3.70;99.90;;;;;;5006236;28;20425;-69
2023/05/18 03:12:56;;;;;;;10.83;6.23;;;3.80;99.90;;;;;;4993233;28;20207;-68
2023/05/18 03:15:22;;;;;;;9.73;6.50;;;3.80;99.90;;;;;;4991755;28;20600;-69
2023/05/18 03:17:50;;;;;;;9.17;7.50;;;3.70;99.90;;;;;;5008028;28;20186;-68
2023/05/18 03:20:16;;;;;;;7.23;6.50;;;3.70;99.90;;;;;;5011142;28;20206;-70
2023/05/18 03:22:42;;;;;;;10.40;7.37;;;3.70;99.90;;;;;;5003109;28;20458;-69
2023/05/18 03:25:10;;;;;;;10.90;7.80;;;3.70;99.90;;;;;;5007380;28;20202;-69
2023/05/18 03:27:36;;;;;;;14.30;8.77;;;3.60;99.90;;;;;;5006612;28;20534;-68
2023/05/18 03:30:03;;;;;;;12.70;8.50;;;3.60;99.90;;;;;;5002320;28;20443;-69
2023/05/18 03:32:30;;;;;;;10.47;7.10;;;3.60;99.90;;;;;;5002829;28;20229;-69
2023/05/18 03:34:56;;;;;;;12.23;8.63;;;3.60;99.90;;;;;;4993061;28;20455;-69
2023/05/18 03:37:21;;;;;;;15.80;7.20;;;3.60;99.90;;;;;;4996359;28;20980;-68
2023/05/18 03:39:50;;;;;;;11.63;8.50;;;3.70;99.90;;;;;;5002226;28;20251;-68
2023/05/18 03:42:15;;;;;;;11.93;8.40;;;3.70;99.90;;;;;;4999612;28;20677;-69
2023/05/18 03:44:41;;;;;;;10.50;7.73;;;3.60;99.90;;;;;;4999020;28;20468;-69
2023/05/18 03:47:10;;;;;;;9.00;7.27;;;3.70;99.90;;;;;;4994441;28;20555;-69
2023/05/18 03:49:35;;;;;;;19.53;7.90;;;3.70;99.90;;;;;;5011102;28;20683;-69
2023/05/18 03:52:03;;;;;;;8.70;7.77;;;3.60;99.90;;;;;;5000477;28;20482;-69
2023/05/18 03:54:28;;;;;;;10.40;7.97;;;3.70;99.90;;;;;;5002973;28;20706;-69
2023/05/18 03:56:54;;;;;;;15.27;8.20;;;3.70;99.90;;;;;;5011010;28;20436;-69
2023/05/18 03:59:20;;;;;;;17.10;8.07;;;3.80;99.90;;;;;;5007753;28;20196;-69
2023/05/18 04:01:52;;;;;;;11.47;7.47;;;3.90;99.90;;;;;;5006399;28;20217;-69
2023/05/18 04:04:22;;;;;;;9.67;8.10;;;3.90;99.90;;;;;;5009290;28;20185;-69
2023/05/18 04:06:50;;;;;;;11.70;8.33;;;3.90;99.90;;;;;;5003159;28;20937;-67
2023/05/18 04:09:17;;;;;;;10.07;7.83;;;4.00;99.90;;;;;;4994781;28;20445;-69
2023/05/18 04:11:43;;;;;;;11.53;8.53;;;4.10;99.90;;;;;;4994878;28;20551;-69
2023/05/18 04:14:12;;;;;;;15.33;8.43;;;4.10;99.90;;;;;;5002825;28;20457;-69
2023/05/18 04:16:38;;;;;;;16.93;8.63;;;4.20;99.90;;;;;;5009965;28;20426;-69
2023/05/18 04:19:05;;;;;;;12.33;8.00;;;4.30;99.90;;;;;;5005923;28;20434;-69
2023/05/18 04:21:34;;;;;;;13.60;7.93;;;4.40;99.90;;;;;;5006402;28;20268;-69
2023/05/18 04:24:03;;;;;;;11.70;7.70;;;4.40;99.90;;;;;;4996466;28;20438;-69
2023/05/18 04:26:30;;;;;;;9.33;7.17;;;4.40;99.90;;;;;;5000555;28;20425;-69
2023/05/18 04:28:59;;;;;;;18.97;7.73;;;4.50;99.90;;;;;;5004733;28;20412;-69
2023/05/18 04:31:28;;;;;;;12.97;8.40;;;4.60;99.90;;;;;;5002685;28;20500;-70
2023/05/18 04:33:54;;;;;;;16.03;9.50;;;4.70;99.90;;;;;;5003605;28;20801;-69
2023/05/18 04:36:19;;;;;;;13.13;7.80;;;4.80;99.90;;;;;;5010643;28;20426;-70
2023/05/18 04:38:45;;;;;;;9.83;8.23;;;4.90;99.90;;;;;;5010379;28;20653;-69
2023/05/18 04:41:11;;;;;;;12.27;8.57;;;5.00;99.90;;;;;;5002897;28;20222;-69
2023/05/18 04:43:37;;;;;;;12.80;8.70;;;5.10;99.90;;;;;;5001143;28;20926;-70
2023/05/18 04:46:02;;;;;;;10.20;7.73;;;5.20;99.90;;;;;;5005791;28;20221;-69
2023/05/18 04:48:31;;;;;;;17.87;9.57;;;5.30;99.90;;;;;;5008596;28;20878;-69
2023/05/18 04:50:56;;;;;;;10.23;8.17;;;5.40;99.90;;;;;;5010060;28;20218;-69
2023/05/18 04:53:22;;;;;;;14.47;7.97;;;5.60;99.90;;;;;;4994328;28;20433;-69
2023/05/18 04:55:52;;;;;;;13.87;8.17;;;5.60;99.90;;;;;;5002109;28;20198;-69
2023/05/18 04:58:17;;;;;;;18.80;7.97;;;5.80;99.90;;;;;;5001639;28;20543;-70
2023/05/18 05:00:43;;;;;;;9.80;6.60;;;6.00;99.90;;;;;;5001256;28;20443;-70
2023/05/18 05:03:10;;;;;;;11.40;6.90;;;6.10;99.90;;;;;;5002570;28;20253;-70
2023/05/18 05:05:36;;;;;;;11.87;6.70;;;6.30;99.90;;;;;;4999890;28;20211;-70
2023/05/18 05:08:03;;;;;;;8.90;6.50;;;6.60;99.90;;;;;;5011271;28;20438;-70
2023/05/18 05:10:30;;;;;;;11.47;6.70;;;7.40;99.90;;;;;;5001889;28;20685;-70
2023/05/18 05:12:56;;;;;;;6.47;5.70;;;9.00;99.90;;;;;;5001581;28;20470;-70
2023/05/18 05:15:21;;;;;;;6.07;5.33;;;11.00;99.90;;;;;;4994140;28;20433;-70
2023/05/18 05:17:47;;;;;;;8.67;4.60;;;13.00;99.90;;;;;;5009192;28;20198;-69
2023/05/18 05:20:13;;;;;;;8.10;4.50;;;14.20;99.90;;;;;;5004789;28;20274;-68
2023/05/18 05:22:38;;;;;;;9.40;5.43;;;15.30;99.90;;;;;;5004976;28;20569;-68
2023/05/18 05:25:04;;;;;;;12.93;7.50;;;16.10;99.90;;;;;;5002958;28;20273;-68
2023/05/18 05:27:30;;;;;;;6.33;4.10;;;16.40;99.90;;;;;;5001576;28;20531;-68
2023/05/18 05:29:55;;;;;;;6.20;4.27;;;16.50;99.90;;;;;;5009376;28;20441;-67
2023/05/18 05:32:21;;;;;;;6.17;4.10;;;16.70;99.90;;;;;;4993424;28;20306;-68
2023/05/18 05:34:49;;;;;;;6.80;3.77;;;16.80;99.90;;;;;;5001757;28;20198;-68
2023/05/18 05:37:15;;;;;;;5.70;3.20;;;17.00;99.90;;;;;;5001051;28;20218;-69
2023/05/18 05:39:40;;;;;;;7.80;3.37;;;16.90;99.90;;;;;;4999903;28;20421;-68
2023/05/18 05:42:07;;;;;;;9.23;4.40;;;17.20;99.90;;;;;;4994572;28;20267;-68
2023/05/18 05:44:33;;;;;;;5.30;4.10;;;17.40;99.90;;;;;;5006893;28;20195;-68
2023/05/18 05:46:58;;;;;;;7.83;4.20;;;17.00;99.90;;;;;;5003364;28;20452;-68
2023/05/18 05:49:24;;;;;;;7.87;3.90;;;17.20;99.90;;;;;;4996776;28;20269;-68
2023/05/18 05:51:50;;;;;;;8.27;4.70;;;17.00;99.90;;;;;;5003950;28;20214;-68
2023/05/18 05:54:15;;;;;;;9.57;3.93;;;16.50;99.90;;;;;;5012235;28;20659;-68
2023/05/18 05:56:42;;;;;;;7.03;4.07;;;16.20;99.90;;;;;;5003752;28;20328;-68
2023/05/18 05:59:07;;;;;;;5.20;3.53;;;15.80;99.90;;;;;;5000948;28;20620;-68
2023/05/18 06:01:33;;;;;;;7.67;3.37;;;15.40;99.90;;;;;;5000724;28;20541;-69
2023/05/18 06:04:00;;;;;;;8.37;4.00;;;15.20;99.90;;;;;;5000238;28;20233;-69
2023/05/18 06:06:25;;;;;;;11.90;4.10;;;15.00;99.90;;;;;;4999878;28;20442;-69
2023/05/18 06:08:51;;;;;;;9.77;4.10;;;14.80;99.90;;;;;;4992701;28;20434;-69
2023/05/18 06:11:16;;;;;;;11.10;4.60;;;14.50;99.90;;;;;;5000111;28;20243;-69
2023/05/18 06:13:45;;;;;;;7.73;3.67;;;14.60;99.90;;;;;;5000408;28;20223;-69
2023/05/18 06:16:10;;;;;;;10.97;3.60;;;14.60;99.90;;;;;;5007612;28;20190;-69
2023/05/18 06:18:36;;;;;;;12.80;4.70;;;14.70;99.90;;;;;;5000569;28;20422;-69
2023/05/18 06:21:05;;;;;;;12.43;4.00;;;14.50;99.90;;;;;;4992214;28;20206;-69
2023/05/18 06:23:30;;;;;;;6.17;3.30;;;14.40;99.90;;;;;;4992711;28;20203;-69
2023/05/18 06:25:56;;;;;;;5.13;4.23;;;14.50;99.90;;;;;;5000457;28;20419;-69
2023/05/18 06:28:21;;;;;;;10.87;3.80;;;14.60;99.90;;;;;;5008290;28;20187;-69
2023/05/18 06:30:47;;;;;;;8.30;3.07;;;14.80;99.90;;;;;;5007035;28;20206;-69
2023/05/18 06:33:13;;;;;;;7.27;3.10;;;14.90;99.90;;;;;;5001062;28;20253;-70
2023/05/18 06:35:39;;;;;;;8.80;4.23;;;14.80;99.90;;;;;;4984890;28;20187;-70
2023/05/18 06:38:04;;;;;;;10.93;3.70;;;15.10;99.90;;;;;;4999881;28;20432;-69
2023/05/18 06:40:30;;;;;;;7.97;3.77;;;15.50;99.90;;;;;;5000166;28;20537;-70
2023/05/18 06:42:55;;;;;;;9.30;3.30;;;15.40;99.90;;;;;;4992122;28;20254;-70
2023/05/18 06:45:21;;;;;;;9.63;3.30;;;15.50;99.90;;;;;;5008540;28;20686;-69
2023/05/18 06:47:47;;;;;;;9.60;3.97;;;15.80;99.90;;;;;;5006873;28;20241;-69
2023/05/18 06:50:12;;;;;;;7.97;3.60;;;16.00;99.90;;;;;;5003236;28;20290;-69
2023/05/18 06:52:38;;;;;;;5.33;2.77;;;16.20;99.90;;;;;;5003482;28;20930;-70
2023/05/18 06:55:06;;;;;;;9.87;3.70;;;16.30;99.90;;;;;;4995014;28;20250;-69
2023/05/18 06:57:32;;;;;;;8.20;3.50;;;16.20;99.90;;;;;;5003603;28;20991;-69
2023/05/18 07:00:01;;;;;;;11.13;4.10;;;16.10;99.90;;;;;;5002644;28;20425;-70
2023/05/18 07:02:27;;;;;;;9.10;4.60;;;16.10;99.90;;;;;;5000109;28;20512;-70
2023/05/18 07:04:52;;;;;;;11.63;3.80;;;16.40;99.90;;;;;;5007373;28;20936;-67
2023/05/18 07:07:21;;;;;;;4.60;3.20;;;16.60;99.90;;;;;;4999956;28;20427;-68
2023/05/18 07:09:48;;;;;;;9.73;3.03;;;16.50;99.90;;;;;;4991892;28;20183;-68
2023/05/18 07:12:14;;;;;;;5.90;2.93;;;16.50;99.90;;;;;;5001070;28;20477;-68
2023/05/18 07:14:39;;;;;;;6.43;3.00;;;16.50;99.90;;;;;;4998391;28;20938;-68
2023/05/18 07:17:06;;;;;;;14.33;3.80;;;16.80;99.90;;;;;;5000417;28;20401;-68
2023/05/18 07:19:33;;;;;;;3.70;2.70;;;16.80;99.90;;;;;;4996993;28;20190;-68
2023/05/18 07:22:03;;;;;;;7.30;4.00;;;17.30;99.90;;;;;;4985526;28;20493;-67
2023/05/18 07:24:29;;;;;;;6.60;3.40;;;17.60;99.90;;;;;;5004433;28;20430;-69
2023/05/18 07:26:54;;;;;;;6.17;3.07;;;17.30;99.90;;;;;;4994159;28;20440;-68
2023/05/18 07:29:20;;;;;;;9.40;3.40;;;17.90;99.90;;;;;;4984160;28;20195;-68
2023/05/18 07:31:45;;;;;;;11.53;3.03;;;18.00;99.90;;;;;;4999434;28;20215;-68
2023/05/18 07:34:11;;;;;;;8.00;3.70;;;17.90;99.90;;;;;;5003021;28;20269;-68
2023/05/18 07:36:36;;;;;;;9.60;3.67;;;17.90;99.90;;;;;;5011089;28;20191;-68
2023/05/18 07:39:02;;;;;;;7.17;3.67;;;18.00;99.90;;;;;;4984055;28;20998;-68
2023/05/18 07:41:27;;;;;;;5.63;3.00;;;18.20;99.90;;;;;;4991519;28;20214;-68
2023/05/18 07:43:53;;;;;;;7.00;3.37;;;18.40;99.90;;;;;;5006046;28;20194;-68
2023/05/18 07:46:19;;;;;;;8.93;3.67;;;18.60;99.90;;;;;;5002436;28;20205;-68
2023/05/18 07:48:45;;;;;;;8.00;3.70;;;18.60;99.90;;;;;;5004045;28;20274;-69
2023/05/18 07:51:11;;;;;;;6.30;3.57;;;18.70;99.90;;;;;;5008651;28;20203;-68
2023/05/18 07:53:37;;;;;;;6.83;3.23;;;18.90;99.90;;;;;;4997597;28;20797;-68
2023/05/18 07:56:03;;;;;;;5.27;2.83;;;18.80;99.90;;;;;;4991376;28;20759;-68
2023/05/18 07:58:29;;;;;;;7.70;3.73;;;18.70;99.90;;;;;;5002378;28;20435;-68
2023/05/18 08:00:57;;;;;;;5.80;3.40;;;19.00;99.90;;;;;;5002326;28;20826;-68
2023/05/18 08:03:23;;;;;;;5.60;3.33;;;19.20;99.90;;;;;;4992558;28;20559;-68
2023/05/18 08:05:48;;;;;;;9.23;3.30;;;19.40;99.90;;;;;;4997539;28;20438;-68
2023/05/18 08:08:17;;;;;;;12.20;4.10;;;19.40;99.90;;;;;;4991877;28;20202;-68
2023/05/18 08:10:43;;;;;;;5.70;3.10;;;19.50;99.90;;;;;;4990899;28;20562;-69
2023/05/18 08:13:08;;;;;;;5.37;3.47;;;19.20;99.90;;;;;;4990500;28;20702;-67
2023/05/18 08:15:39;;;;;;;8.67;3.30;;;19.50;99.90;;;;;;4999019;28;20270;-67
2023/05/18 08:18:05;;;;;;;10.20;3.00;;;19.80;99.90;;;;;;4998189;28;20201;-68
2023/05/18 08:20:30;;;;;;;4.83;3.67;;;20.10;99.90;;;;;;5002404;28;20421;-68
2023/05/18 08:22:56;;;;;;;5.07;3.47;;;20.40;99.90;;;;;;4994995;28;20190;-69
2023/05/18 08:25:22;;;;;;;8.20;3.60;;;20.90;99.90;;;;;;4973686;28;20196;-70
2023/05/18 08:27:48;;;;;;;6.30;3.53;;;21.00;99.90;;;;;;4998677;28;20263;-69
2023/05/18 08:30:20;;;;;;;8.10;2.97;;;21.20;99.90;;;;;;4990603;28;20426;-68
2023/05/18 08:32:46;;;;;;;8.10;3.20;;;21.40;99.90;;;;;;4990894;28;20480;-67
2023/05/18 08:35:12;;;;;;;4.80;3.00;;;21.40;99.90;;;;;;4991472;28;20436;-67
2023/05/18 08:37:38;;;;;;;6.47;3.90;;;21.70;99.90;;;;;;4997318;28;20430;-67
2023/05/18 08:40:06;;;;;;;5.80;2.80;;;21.90;99.90;;;;;;4994131;28;20187;-67
2023/05/18 08:42:33;;;;;;;7.97;3.20;;;21.50;99.90;;;;;;4994353;28;20450;-69
2023/05/18 08:45:27;;;;;;;7.10;3.40;;;21.30;99.90;;;;;;4976724;28;20446;-67
2023/05/18 08:47:56;;;;;;;11.70;2.97;;;21.00;99.90;;;;;;5001077;28;20429;-68
2023/05/18 08:50:25;;;;;;;8.90;3.30;;;19.70;99.90;;;;;;4994332;28;20935;-68
2023/05/18 08:52:54;;;;;;;9.07;3.77;;;19.30;99.90;;;;;;4994265;28;20465;-67
2023/05/18 08:55:20;;;;;;;5.37;3.43;;;18.90;99.90;;;;;;4993469;28;20943;-67
2023/05/18 08:57:54;;;;;;;6.00;3.27;;;19.60;99.90;;;;;;5002190;28;20480;-68
2023/05/18 09:00:23;;;;;;;8.87;3.33;;;20.40;99.90;;;;;;4993236;28;20426;-66
2023/05/18 09:02:49;;;;;;;10.17;2.90;;;20.50;99.90;;;;;;4994128;28;20807;-68
2023/05/18 09:05:15;;;;;;;7.40;3.10;;;20.30;99.90;;;;;;4993386;28;20438;-68
2023/05/18 09:07:42;;;;;;;8.20;3.90;;;20.00;99.90;;;;;;4998144;28;20556;-67
2023/05/18 09:10:12;;;;;;;4.60;2.60;;;19.50;99.90;;;;;;5003590;28;20604;-69
2023/05/18 09:12:40;;;;;;;7.60;3.60;;;19.70;99.90;;;;;;4993554;28;20466;-69
2023/05/18 09:15:08;;;;;;;5.70;3.07;;;20.00;99.90;;;;;;5001393;28;20426;-67
2023/05/18 09:17:33;;;;;;;4.37;2.70;;;20.00;99.90;;;;;;4993039;28;20466;-67
2023/05/18 09:19:59;;;;;;;6.13;2.90;;;19.70;99.90;;;;;;4993408;28;20512;-68
2023/05/18 09:22:25;;;;;;;7.40;3.70;;;19.90;99.90;;;;;;5003985;28;20241;-68
2023/05/18 09:24:51;;;;;;;4.43;2.90;;;20.30;99.90;;;;;;4998709;28;20218;-68
2023/05/18 09:27:16;;;;;;;10.97;3.47;;;20.00;99.90;;;;;;4992860;28;20664;-67
2023/05/18 09:29:53;;;;;;;6.80;3.30;;;20.50;99.90;;;;;;4993524;28;20246;-68
2023/05/18 09:32:18;;;;;;;7.27;3.80;;;20.00;99.80;;;;;;4992760;28;20699;-68
2023/05/18 09:34:44;;;;;;;8.00;4.03;;;19.70;99.30;;;;;;4975652;28;20426;-68
2023/05/18 09:37:10;;;;;;;8.57;3.83;;;18.80;99.90;;;;;;4993314;28;20660;-68
2023/05/18 09:39:36;;;;;;;8.77;3.10;;;18.70;99.90;;;;;;4992681;28;20514;-68
2023/05/18 09:42:02;;;;;;;7.57;3.77;;;18.50;99.90;;;;;;5000734;28;20592;-67
2023/05/18 09:44:33;;;;;;;8.33;4.40;;;18.90;99.90;;;;;;5004171;28;20182;-68
2023/05/18 09:46:59;;;;;;;5.63;3.50;;;18.10;99.90;;;;;;4997606;28;20440;-67
2023/05/18 09:49:24;;;;;;;7.70;4.50;;;17.60;99.90;;;;;;5000549;28;20525;-68
2023/05/18 09:51:50;;;;;;;10.50;4.07;;;18.30;99.90;;;;;;4975559;28;20215;-68
2023/05/18 09:54:15;;;;;;;4.83;2.70;;;18.80;99.90;;;;;;4974950;28;20183;-68
2023/05/18 09:56:45;;;;;;;5.30;2.90;;;19.70;99.90;;;;;;4997639;28;20730;-69
2023/05/18 09:59:13;;;;;;;7.53;3.43;;;20.20;99.70;;;;;;4995711;28;20175;-68
2023/05/18 10:02:01;;;;;;;7.33;3.20;;;20.50;99.50;;;;;;5004238;28;20441;-69
2023/05/18 10:04:40;;;;;;;4.10;3.33;;;20.80;98.20;;;;;;4992903;28;20525;-68
2023/05/18 10:07:13;;;;;;;12.00;3.60;;;20.80;97.50;;;;;;5000615;28;20525;-67
2023/05/18 10:09:43;;;;;;;6.37;3.60;;;20.90;96.50;;;;;;4992621;28;20431;-67
2023/05/18 10:12:14;;;;;;;9.80;3.40;;;20.70;96.20;;;;;;4992547;28;20900;-67
2023/05/18 10:14:43;;;;;;;8.20;3.47;;;20.50;95.40;;;;;;4999626;28;20426;-69
2023/05/18 10:17:13;;;;;;;6.97;3.43;;;20.70;95.80;;;;;;5008756;28;20434;-66
2023/05/18 10:19:40;;;;;;;6.57;3.17;;;20.90;96.40;;;;;;5005878;28;20914;-67
2023/05/18 10:22:07;;;;;;;9.70;2.93;;;21.30;95.30;;;;;;5001180;28;20525;-68
2023/05/18 10:24:38;;;;;;;6.43;3.13;;;21.30;96.20;;;;;;4993179;28;20439;-68
2023/05/18 10:27:08;;;;;;;8.27;3.27;;;21.00;95.50;;;;;;4992725;28;20430;-68
2023/05/18 10:29:36;;;;;;;4.77;2.90;;;21.60;97.30;;;;;;4987538;28;20425;-68
2023/05/18 10:32:03;;;;;;;8.37;4.07;;;21.70;94.10;;;;;;4996334;28;20994;-68
2023/05/18 10:34:30;;;;;;;7.13;3.60;;;21.20;93.90;;;;;;4991426;28;20430;-66
2023/05/18 10:36:58;;;;;;;7.33;3.00;;;21.20;94.60;;;;;;4999166;28;20529;-67
2023/05/18 10:39:27;;;;;;;6.50;3.23;;;21.30;94.20;;;;;;4999348;28;20430;-66
2023/05/18 10:41:57;;;;;;;7.77;3.20;;;21.50;93.40;;;;;;4997613;28;20453;-66
2023/05/18 10:44:24;;;;;;;6.63;3.40;;;21.70;93.70;;;;;;4994905;28;20448;-66
2023/05/18 10:46:50;;;;;;;8.10;3.43;;;22.00;94.50;;;;;;5003426;28;20437;-66
2023/05/18 10:49:23;;;;;;;5.80;3.10;;;22.20;92.00;;;;;;5009711;28;20437;-67
2023/05/18 10:51:54;;;;;;;7.63;3.03;;;21.60;91.00;;;;;;4991830;28;20474;-67
2023/05/18 10:54:22;;;;;;;10.70;3.10;;;21.40;92.00;;;;;;4999240;28;20840;-67
2023/05/18 10:56:50;;;;;;;9.70;4.10;;;21.40;92.10;;;;;;5000119;28;20422;-67
2023/05/18 10:59:17;;;;;;;4.80;2.80;;;21.80;94.90;;;;;;4991231;28;20433;-67
2023/05/18 11:01:44;;;;;;;10.20;3.13;;;21.80;94.20;;;;;;4999384;28;20455;-68
2023/05/18 11:04:13;;;;;;;11.40;3.30;;;21.80;95.20;;;;;;4991700;28;20500;-67
2023/05/18 11:06:38;;;;;;;6.37;3.00;;;21.60;94.30;;;;;;4991424;28;20439;-67
2023/05/18 11:09:04;;;;;;;9.47;2.90;;;21.60;96.10;;;;;;4998872;28;20445;-67
2023/05/18 11:12:12;;;;;;;8.23;3.03;;;21.60;93.90;;;;;;4994294;28;20207;-67
2023/05/18 11:14:50;;;;;;;9.40;3.03;;;20.90;94.20;;;;;;4939718;29;20204;-67
2023/05/18 11:17:20;;;;;;;5.90;3.00;;;20.50;94.30;;;;;;4931085;29;20497;-66
2023/05/18 11:20:06;;;;;;;8.97;3.40;;;20.20;95.50;;;;;;4976316;28;20780;-67
2023/05/18 11:22:45;;;;;;;6.77;3.40;;;20.60;94.50;;;;;;5001861;28;20449;-67
2023/05/18 11:25:29;;;;;;;4.40;2.53;;;20.60;95.00;;;;;;4994983;28;20513;-67
2023/05/18 11:28:00;;;;;;;7.13;2.20;;;20.70;95.00;;;;;;4985769;28;20434;-67
2023/05/18 11:30:29;;;;;;;7.43;2.87;;;20.60;95.30;;;;;;4990833;28;20521;-67
2023/05/18 11:33:14;;;;;;;7.30;3.47;;;20.30;93.60;;;;;;4997256;28;20560;-67
2023/05/18 11:36:03;;;;;;;5.93;2.60;;;20.40;97.10;;;;;;5002871;28;20429;-67
2023/05/18 11:39:03;;;;;;;5.57;3.10;;;20.60;94.60;;;;;;5007886;28;20440;-69
2023/05/18 11:41:35;;;;;;;9.63;2.93;;;20.90;95.80;;;;;;4990741;28;20958;-68
2023/05/18 11:44:16;;;;;;;6.43;3.43;;;20.90;95.60;;;;;;4991656;28;20427;-67
2023/05/18 11:46:59;;;;;;;5.00;2.70;;;21.30;96.30;;;;;;4993373;28;21177;-66
2023/05/18 11:49:35;;;;;;;7.67;2.50;;;21.50;94.30;;;;;;5000416;28;20729;-67
2023/05/18 11:52:15;;;;;;;8.53;2.83;;;21.40;94.20;;;;;;4999493;28;20474;-67
2023/05/18 11:54:47;;;;;;;5.10;2.73;;;20.90;93.40;;;;;;4985894;28;20421;-68
2023/05/18 11:57:15;;;;;;;6.03;2.47;;;20.20;94.30;;;;;;4990260;28;20473;-67
2023/05/18 11:59:43;;;;;;;7.27;2.53;;;20.10;95.10;;;;;;4989982;28;20465;-69
2023/05/18 12:02:10;;;;;;;6.43;2.70;;;20.20;93.40;;;;;;4994724;28;20446;-69
2023/05/18 12:04:45;;;;;;;8.93;3.20;;;20.20;94.10;;;;;;5002046;28;20734;-69
2023/05/18 12:07:11;;;;;;;5.37;2.53;;;20.20;94.10;;;;;;4995119;28;20472;-68
2023/05/18 12:09:40;;;;;;;5.07;2.47;;;20.20;95.20;;;;;;4998798;28;20465;-69
2023/05/18 12:12:07;;;;;;;8.20;3.00;;;20.40;93.80;;;;;;4999248;28;20745;-69
2023/05/18 12:14:34;;;;;;;10.60;3.10;;;20.50;96.30;;;;;;5008620;28;20434;-69
2023/05/18 12:17:04;;;;;;;8.83;2.90;;;20.40;93.10;;;;;;4994887;28;20191;-69
2023/05/18 12:19:35;;;;;;;10.83;2.90;;;20.50;93.70;;;;;;5012062;28;20429;-69
2023/05/18 12:22:01;;;;;;;6.97;2.13;;;20.40;93.50;;;;;;4997002;28;20491;-69
2023/05/18 12:24:27;;;;;;;13.50;8.10;;;20.20;94.90;;;;;;5014002;28;20432;-68
2023/05/18 12:26:53;;;;;;;8.40;2.70;;;20.40;94.50;;;;;;5006455;28;20488;-69
2023/05/18 12:29:20;;;;;;;7.53;3.20;;;20.40;94.50;;;;;;5005516;28;20798;-68
2023/05/18 12:31:46;;;;;;;4.83;2.70;;;19.90;93.60;;;;;;5002421;28;20215;-69
2023/05/18 12:34:13;;;;;;;10.00;3.30;;;19.70;93.20;;;;;;4994733;28;20434;-69
2023/05/18 12:36:51;;;;;;;4.70;2.20;;;19.70;93.90;;;;;;5005453;28;20797;-69
2023/05/18 12:39:17;;;;;;;8.93;2.57;;;19.70;93.90;;;;;;5005732;28;20429;-68
2023/05/18 12:41:42;;;;;;;8.80;2.50;;;19.60;94.00;;;;;;4998202;28;20445;-69
2023/05/18 12:44:08;;;;;;;4.90;2.47;;;19.60;95.00;;;;;;5007218;28;20195;-69
2023/05/18 12:46:33;;;;;;;5.23;1.97;;;19.80;93.70;;;;;;5010214;28;20199;-69
2023/05/18 12:49:04;;;;;;;6.90;3.10;;;19.80;94.30;;;;;;5008102;28;20190;-69
2023/05/18 12:51:45;;;;;;;4.27;2.90;;;19.70;94.10;;;;;;4984847;28;20227;-69
2023/05/18 12:54:10;;;;;;;7.97;2.83;;;19.40;94.40;;;;;;4976947;28;20958;-68
2023/05/18 12:56:59;;;;;;;5.60;2.60;;;19.20;94.70;;;;;;5010108;28;20193;-69
2023/05/18 12:59:26;;;;;;;3.63;1.90;;;19.30;93.90;;;;;;5001734;28;20184;-69
2023/05/18 13:01:57;;;;;;;5.00;2.80;;;19.50;94.60;;;;;;4994270;28;20461;-69
2023/05/18 13:04:31;;;;;;;5.63;3.30;;;19.50;95.30;;;;;;5001993;28;20537;-69
2023/05/18 13:06:59;;;;;;;7.17;3.83;;;19.70;98.50;;;;;;4984693;28;20478;-68
2023/05/18 13:09:25;;;;;;;8.10;3.23;;;19.50;95.10;;;;;;4976071;28;20446;-69
2023/05/18 13:11:51;;;;;;;7.80;2.70;;;19.50;96.50;;;;;;5002013;28;20504;-70
2023/05/18 13:14:22;;;;;;;6.80;2.37;;;19.20;95.80;;;;;;4994082;28;20282;-69
2023/05/18 13:16:50;;;;;;;5.30;2.10;;;19.10;96.50;;;;;;4994401;28;20513;-68
2023/05/18 13:19:18;;;;;;;9.10;2.93;;;19.30;97.00;;;;;;5001395;28;20444;-69
2023/05/18 13:21:44;;;;;;;7.23;3.07;;;19.70;96.50;;;;;;4993482;28;20450;-69
2023/05/18 13:24:10;;;;;;;11.43;2.27;;;19.80;96.40;;;;;;5000687;28;20436;-69
2023/05/18 13:26:35;;;;;;;7.73;2.50;;;19.60;95.10;;;;;;5010324;28;20433;-69
2023/05/18 13:29:01;;;;;;;6.53;3.30;;;19.40;95.60;;;;;;5007218;28;20241;-69
2023/05/18 13:31:28;;;;;;;7.90;2.50;;;19.30;95.80;;;;;;4978063;28;20577;-68
2023/05/18 13:33:54;;;;;;;9.77;2.70;;;19.10;96.70;;;;;;4998296;28;20187;-70
2023/05/18 13:36:20;;;;;;;3.53;1.90;;;19.20;96.40;;;;;;5005199;28;20426;-69
2023/05/18 13:38:45;;;;;;;8.97;2.67;;;19.00;96.30;;;;;;5001298;28;20206;-69
2023/05/18 13:41:13;;;;;;;4.97;2.73;;;18.80;96.90;;;;;;4993780;28;20442;-69
2023/05/18 13:43:40;;;;;;;6.30;2.60;;;18.80;97.00;;;;;;5009426;28;20183;-69
2023/05/18 13:46:06;;;;;;;11.60;2.43;;;18.80;97.50;;;;;;4993417;28;20431;-69
2023/05/18 13:48:31;;;;;;;7.90;2.90;;;19.00;97.00;;;;;;5002384;28;20436;-69
2023/05/18 13:50:57;;;;;;;6.53;2.33;;;19.10;96.20;;;;;;4999827;28;20211;-68
2023/05/18 13:53:22;;;;;;;4.23;2.70;;;19.20;96.00;;;;;;4993210;28;20207;-68
2023/05/18 13:55:48;;;;;;;10.40;3.07;;;19.40;96.60;;;;;;5009094;28;20269;-69
2023/05/18 13:58:18;;;;;;;7.90;2.10;;;19.10;96.10;;;;;;5000228;28;20260;-69
2023/05/18 14:00:45;;;;;;;7.00;2.17;;;19.00;96.50;;;;;;5004197;28;20445;-68
2023/05/18 14:03:11;;;;;;;4.10;1.77;;;19.00;98.20;;;;;;5003605;28;20513;-69
2023/05/18 14:05:37;;;;;;;9.47;3.00;;;19.00;97.50;;;;;;5002889;28;20465;-69
2023/05/18 14:08:02;;;;;;;5.50;2.43;;;19.10;97.60;;;;;;5012517;28;20484;-69
2023/05/18 14:10:28;;;;;;;4.97;2.80;;;19.20;97.10;;;;;;5004023;28;20202;-68
2023/05/18 14:12:53;;;;;;;3.90;1.73;;;19.30;97.30;;;;;;5004286;28;20598;-69
2023/05/18 14:15:19;;;;;;;3.37;2.13;;;19.30;97.80;;;;;;5004682;28;20532;-69
2023/05/18 14:17:44;;;;;;;5.50;2.73;;;19.40;97.20;;;;;;5008465;28;20223;-69
2023/05/18 14:20:11;;;;;;;4.07;1.90;;;19.30;95.60;;;;;;5000965;28;20716;-69
2023/05/18 14:22:37;;;;;;;5.80;2.10;;;19.30;96.40;;;;;;5010299;28;20250;-69